Hlavní strana
METAR-TAF:

METAR-TAF

Letiště :

Pisa, Itálie

zeměpisná šířka: 43-41N, zeměpisná délka: 010-23E, výška: 2 m

Aktuální stav počasí

Zpráva byla vytvořena před 42 minutami, v 06:15 UTC
Východojihovýchodní vítr 7 kt
Teplota 25°C
Vlhkost vzduchu 61%
Tlak 1014 hPa
Viditelnost 10 km a více
Žádná oblačnost pod 1500 m, nevyskytují se cumulonimby.

METAR: LIRP 190615Z 11007KT CAVOK 25/17 Q1014 NOSIG

Čas: 08:57 (06:57 UTC)

Předpověď počasí

Zpráva byla vytvořena před 1 hodinou a 57 minutami, v 05:00 UTC
Předpověď platná od 19 v 06 UTC do 20 v 06 UTC
vítr z různých směrů 3 kt
Viditelnost 10 km a více
Žádná oblačnost pod 1500 m, nevyskytují se cumulonimby.
Změna
od 19 v 11 UTC do 19 v 13 UTC
Viditelnost 10 km a více
Polojasno ve výšce 8000 ft

TAF: LIRP 190500Z 1906/2006 VRB03KT CAVOK BECMG 1911/1913 9999 SCT080

Stav a předpovědi počasí z více než 4 000 letišť (zprávy METAR a TAF).

Červené a žluté tečky na mapě představují dostupné meteorologické stanice.

Když kurzor umístíte na tečku, zobrazí se název stanice.

Pak kliknutím zobrazíte stav a předpověď počasí.

Chcete-li změnit mapu, kliknutím na zelené tlačítko se znaménkem +mapu přiblížíte, kliknutím na zelené tlačítko se znaménkem – mapu oddálíte a kliknutím na zelené šipky přejdete na sousední mapy.


METAR-TAF: